sensor_id;sensor_type;location;lat;lon;timestamp;pressure;altitude;pressure_sealevel;temperature;humidity
43820;BME280;67762;52.476;6.046;2023-08-20T00:00:14;102001.41;;;16.17;94.27
43820;BME280;67762;52.476;6.046;2023-08-20T00:02:42;102003.13;;;16.10;94.37
43820;BME280;67762;52.476;6.046;2023-08-20T00:05:09;101998.75;;;16.09;95.44
43820;BME280;67762;52.476;6.046;2023-08-20T00:07:35;101999.09;;;16.06;95.90
43820;BME280;67762;52.476;6.046;2023-08-20T00:10:02;101999.41;;;16.03;95.58
43820;BME280;67762;52.476;6.046;2023-08-20T00:12:30;102011.22;;;15.94;95.20
43820;BME280;67762;52.476;6.046;2023-08-20T00:17:33;102016.78;;;15.76;96.62
43820;BME280;67762;52.476;6.046;2023-08-20T00:20:00;102014.75;;;15.78;96.55
43820;BME280;67762;52.476;6.046;2023-08-20T00:22:26;102013.59;;;15.73;97.23
43820;BME280;67762;52.476;6.046;2023-08-20T00:24:53;102017.47;;;15.70;96.80
43820;BME280;67762;52.476;6.046;2023-08-20T00:27:20;102016.09;;;15.66;97.32
43820;BME280;67762;52.476;6.046;2023-08-20T00:29:46;102017.47;;;15.62;97.81
43820;BME280;67762;52.476;6.046;2023-08-20T00:32:14;102028.38;;;15.61;97.54
43820;BME280;67762;52.476;6.046;2023-08-20T00:34:40;102023.69;;;15.63;98.27
43820;BME280;67762;52.476;6.046;2023-08-20T00:37:05;102024.19;;;15.74;99.01
43820;BME280;67762;52.476;6.046;2023-08-20T00:39:31;102032.25;;;15.91;98.60
43820;BME280;67762;52.476;6.046;2023-08-20T00:41:58;102034.09;;;16.06;98.71
43820;BME280;67762;52.476;6.046;2023-08-20T00:44:23;102035.75;;;16.23;97.78
43820;BME280;67762;52.476;6.046;2023-08-20T00:46:50;102040.56;;;16.36;97.61
43820;BME280;67762;52.476;6.046;2023-08-20T00:49:16;102038.03;;;16.51;96.80
43820;BME280;67762;52.476;6.046;2023-08-20T00:51:42;102033.75;;;16.72;97.22
43820;BME280;67762;52.476;6.046;2023-08-20T00:54:09;102027.56;;;16.94;96.97
43820;BME280;67762;52.476;6.046;2023-08-20T00:56:35;102017.72;;;17.10;96.00
43820;BME280;67762;52.476;6.046;2023-08-20T00:59:01;102021.31;;;17.25;95.55
43820;BME280;67762;52.476;6.046;2023-08-20T01:01:27;102025.72;;;17.48;94.86
43820;BME280;67762;52.476;6.046;2023-08-20T01:03:53;102038.84;;;17.60;93.74
43820;BME280;67762;52.476;6.046;2023-08-20T01:08:57;102050.63;;;17.59;93.46
43820;BME280;67762;52.476;6.046;2023-08-20T01:11:31;102044.22;;;17.60;93.00
43820;BME280;67762;52.476;6.046;2023-08-20T01:13:59;102051.66;;;17.58;93.27
43820;BME280;67762;52.476;6.046;2023-08-20T01:16:26;102047.97;;;17.50;92.81
43820;BME280;67762;52.476;6.046;2023-08-20T01:18:53;102045.34;;;17.42;92.58
43820;BME280;67762;52.476;6.046;2023-08-20T01:21:38;102048.44;;;17.31;92.55
43820;BME280;67762;52.476;6.046;2023-08-20T01:30:15;102060.59;;;16.96;93.34
43820;BME280;67762;52.476;6.046;2023-08-20T01:32:42;102062.50;;;16.88;93.60
43820;BME280;67762;52.476;6.046;2023-08-20T01:35:14;102062.66;;;16.86;94.24
43820;BME280;67762;52.476;6.046;2023-08-20T01:37:40;102068.72;;;16.88;94.53
43820;BME280;67762;52.476;6.046;2023-08-20T01:40:07;102068.56;;;16.90;94.38
43820;BME280;67762;52.476;6.046;2023-08-20T01:42:34;102084.09;;;16.88;94.65
43820;BME280;67762;52.476;6.046;2023-08-20T01:45:00;102090.63;;;16.85;94.15
43820;BME280;67762;52.476;6.046;2023-08-20T01:47:26;102084.44;;;16.85;94.46
43820;BME280;67762;52.476;6.046;2023-08-20T01:49:51;102088.44;;;16.89;94.98
43820;BME280;67762;52.476;6.046;2023-08-20T01:52:17;102096.03;;;16.93;94.13
43820;BME280;67762;52.476;6.046;2023-08-20T01:54:43;102097.00;;;17.01;94.40
43820;BME280;67762;52.476;6.046;2023-08-20T01:57:09;102094.78;;;17.04;94.19
43820;BME280;67762;52.476;6.046;2023-08-20T01:59:35;102097.94;;;17.08;94.77
43820;BME280;67762;52.476;6.046;2023-08-20T02:02:01;102098.66;;;17.10;94.06
43820;BME280;67762;52.476;6.046;2023-08-20T02:04:28;102102.19;;;17.10;93.63
43820;BME280;67762;52.476;6.046;2023-08-20T02:06:53;102106.88;;;17.08;94.20
43820;BME280;67762;52.476;6.046;2023-08-20T02:09:19;102099.34;;;17.04;94.14
43820;BME280;67762;52.476;6.046;2023-08-20T02:11:45;102091.78;;;16.99;94.16
43820;BME280;67762;52.476;6.046;2023-08-20T02:14:11;102105.63;;;16.96;94.38
43820;BME280;67762;52.476;6.046;2023-08-20T02:16:37;102105.63;;;16.96;93.99
43820;BME280;67762;52.476;6.046;2023-08-20T02:19:02;102094.13;;;16.94;94.09
43820;BME280;67762;52.476;6.046;2023-08-20T02:21:30;102092.97;;;16.88;93.87
43820;BME280;67762;52.476;6.046;2023-08-20T02:23:56;102095.56;;;16.82;94.00
43820;BME280;67762;52.476;6.046;2023-08-20T02:26:22;102093.38;;;16.77;94.61
43820;BME280;67762;52.476;6.046;2023-08-20T02:28:47;102102.81;;;16.73;94.36
43820;BME280;67762;52.476;6.046;2023-08-20T02:31:13;102105.88;;;16.70;93.89
43820;BME280;67762;52.476;6.046;2023-08-20T02:33:38;102121.88;;;16.64;94.55
43820;BME280;67762;52.476;6.046;2023-08-20T02:36:04;102118.72;;;16.60;94.02
43820;BME280;67762;52.476;6.046;2023-08-20T02:38:31;102099.16;;;16.58;94.44
43820;BME280;67762;52.476;6.046;2023-08-20T02:40:56;102096.97;;;16.54;94.81
43820;BME280;67762;52.476;6.046;2023-08-20T02:43:22;102085.84;;;16.49;95.22
43820;BME280;67762;52.476;6.046;2023-08-20T02:45:48;102083.50;;;16.46;94.68
43820;BME280;67762;52.476;6.046;2023-08-20T02:48:17;102077.47;;;16.44;95.08
43820;BME280;67762;52.476;6.046;2023-08-20T02:50:43;102079.13;;;16.45;94.99
43820;BME280;67762;52.476;6.046;2023-08-20T02:53:09;102078.97;;;16.46;94.34
43820;BME280;67762;52.476;6.046;2023-08-20T02:55:34;102076.09;;;16.48;94.88
43820;BME280;67762;52.476;6.046;2023-08-20T02:58:01;102069.69;;;16.49;94.39
43820;BME280;67762;52.476;6.046;2023-08-20T03:00:28;102077.78;;;16.49;93.96
43820;BME280;67762;52.476;6.046;2023-08-20T03:02:55;102065.81;;;16.51;93.69
43820;BME280;67762;52.476;6.046;2023-08-20T03:05:20;102065.63;;;16.53;93.76
43820;BME280;67762;52.476;6.046;2023-08-20T03:07:46;102064.13;;;16.50;93.78
43820;BME280;67762;52.476;6.046;2023-08-20T03:10:12;102048.28;;;16.47;93.94
43820;BME280;67762;52.476;6.046;2023-08-20T03:12:37;102056.25;;;16.41;93.72
43820;BME280;67762;52.476;6.046;2023-08-20T03:15:03;102060.13;;;16.38;93.22
43820;BME280;67762;52.476;6.046;2023-08-20T03:17:29;102063.47;;;16.40;93.26
43820;BME280;67762;52.476;6.046;2023-08-20T03:19:59;102051.84;;;16.39;93.53
43820;BME280;67762;52.476;6.046;2023-08-20T03:22:26;102050.84;;;16.41;93.04
43820;BME280;67762;52.476;6.046;2023-08-20T03:24:53;102060.13;;;16.38;93.96
43820;BME280;67762;52.476;6.046;2023-08-20T03:27:19;102067.69;;;16.34;93.82
43820;BME280;67762;52.476;6.046;2023-08-20T03:29:45;102069.22;;;16.29;93.48
43820;BME280;67762;52.476;6.046;2023-08-20T03:32:12;102072.09;;;16.19;94.05
43820;BME280;67762;52.476;6.046;2023-08-20T03:34:37;102069.59;;;16.10;94.31
43820;BME280;67762;52.476;6.046;2023-08-20T03:37:04;102079.34;;;16.03;94.64
43820;BME280;67762;52.476;6.046;2023-08-20T03:39:30;102069.94;;;15.99;94.62
43820;BME280;67762;52.476;6.046;2023-08-20T03:41:57;102080.38;;;15.94;94.81
43820;BME280;67762;52.476;6.046;2023-08-20T03:44:23;102079.69;;;15.84;95.20
43820;BME280;67762;52.476;6.046;2023-08-20T03:46:48;102076.34;;;15.73;95.26
43820;BME280;67762;52.476;6.046;2023-08-20T03:49:16;102086.75;;;15.60;95.25
43820;BME280;67762;52.476;6.046;2023-08-20T03:51:41;102085.91;;;15.52;96.03
43820;BME280;67762;52.476;6.046;2023-08-20T03:54:08;102080.00;;;15.48;96.66
43820;BME280;67762;52.476;6.046;2023-08-20T03:56:35;102084.38;;;15.49;96.25
43820;BME280;67762;52.476;6.046;2023-08-20T03:59:01;102079.34;;;15.54;96.46
43820;BME280;67762;52.476;6.046;2023-08-20T04:01:27;102093.47;;;15.64;96.99
43820;BME280;67762;52.476;6.046;2023-08-20T04:03:53;102099.53;;;15.74;96.56
43820;BME280;67762;52.476;6.046;2023-08-20T04:06:18;102099.56;;;15.83;96.61
43820;BME280;67762;52.476;6.046;2023-08-20T04:08:44;102102.41;;;15.89;96.19
43820;BME280;67762;52.476;6.046;2023-08-20T04:11:10;102104.44;;;15.95;97.02
43820;BME280;67762;52.476;6.046;2023-08-20T04:13:39;102106.28;;;15.95;97.10
43820;BME280;67762;52.476;6.046;2023-08-20T04:16:05;102095.84;;;15.92;96.92
43820;BME280;67762;52.476;6.046;2023-08-20T04:18:30;102105.28;;;15.88;96.88
43820;BME280;67762;52.476;6.046;2023-08-20T04:20:56;102107.13;;;15.87;96.50
43820;BME280;67762;52.476;6.046;2023-08-20T04:23:23;102103.25;;;15.90;97.05
43820;BME280;67762;52.476;6.046;2023-08-20T04:25:49;102103.06;;;15.91;96.49
43820;BME280;67762;52.476;6.046;2023-08-20T04:28:15;102101.41;;;15.90;97.17
43820;BME280;67762;52.476;6.046;2023-08-20T04:30:41;102098.72;;;15.90;96.91
43820;BME280;67762;52.476;6.046;2023-08-20T04:33:07;102106.47;;;15.85;96.24
43820;BME280;67762;52.476;6.046;2023-08-20T04:35:33;102116.84;;;15.80;96.81
43820;BME280;67762;52.476;6.046;2023-08-20T04:37:59;102122.59;;;15.77;97.70
43820;BME280;67762;52.476;6.046;2023-08-20T04:40:26;102114.69;;;15.75;97.36
43820;BME280;67762;52.476;6.046;2023-08-20T04:42:52;102117.03;;;15.78;97.85
43820;BME280;67762;52.476;6.046;2023-08-20T04:45:18;102122.59;;;15.85;98.49
43820;BME280;67762;52.476;6.046;2023-08-20T04:47:46;102128.31;;;15.90;97.85
43820;BME280;67762;52.476;6.046;2023-08-20T04:50:12;102128.66;;;15.95;98.54
43820;BME280;67762;52.476;6.046;2023-08-20T04:52:39;102128.31;;;15.98;97.64
43820;BME280;67762;52.476;6.046;2023-08-20T04:55:06;102123.28;;;16.03;98.51
43820;BME280;67762;52.476;6.046;2023-08-20T04:57:32;102119.72;;;16.03;98.08
43820;BME280;67762;52.476;6.046;2023-08-20T04:59:58;102130.16;;;16.06;98.39
43820;BME280;67762;52.476;6.046;2023-08-20T05:02:41;102131.53;;;16.10;98.88
43820;BME280;67762;52.476;6.046;2023-08-20T05:05:11;102133.38;;;16.17;98.57
43820;BME280;67762;52.476;6.046;2023-08-20T05:07:38;102132.69;;;16.23;98.19
43820;BME280;67762;52.476;6.046;2023-08-20T05:10:04;102135.53;;;16.30;99.10
43820;BME280;67762;52.476;6.046;2023-08-20T05:12:30;102132.16;;;16.36;98.05
43820;BME280;67762;52.476;6.046;2023-08-20T05:14:56;102142.13;;;16.44;98.24
43820;BME280;67762;52.476;6.046;2023-08-20T05:17:21;102141.25;;;16.51;98.33
43820;BME280;67762;52.476;6.046;2023-08-20T05:19:47;102145.81;;;16.59;97.95
43820;BME280;67762;52.476;6.046;2023-08-20T05:22:13;102146.44;;;16.69;97.37
43820;BME280;67762;52.476;6.046;2023-08-20T05:24:38;102152.66;;;16.77;97.37
43820;BME280;67762;52.476;6.046;2023-08-20T05:27:05;102142.53;;;16.87;97.65
43820;BME280;67762;52.476;6.046;2023-08-20T05:29:32;102149.06;;;17.01;97.00
43820;BME280;67762;52.476;6.046;2023-08-20T05:31:58;102151.03;;;17.15;96.29
43820;BME280;67762;52.476;6.046;2023-08-20T05:34:24;102148.13;;;17.25;95.91
43820;BME280;67762;52.476;6.046;2023-08-20T05:36:50;102158.34;;;17.37;95.17
43820;BME280;67762;52.476;6.046;2023-08-20T05:39:16;102151.06;;;17.46;94.79
43820;BME280;67762;52.476;6.046;2023-08-20T05:41:41;102149.00;;;17.56;94.76
43820;BME280;67762;52.476;6.046;2023-08-20T05:44:07;102155.69;;;17.68;94.48
43820;BME280;67762;52.476;6.046;2023-08-20T05:46:33;102158.44;;;17.83;94.72
43820;BME280;67762;52.476;6.046;2023-08-20T05:48:58;102152.94;;;17.99;93.47
43820;BME280;67762;52.476;6.046;2023-08-20T05:51:26;102149.25;;;18.15;92.91
43820;BME280;67762;52.476;6.046;2023-08-20T05:53:52;102154.03;;;18.27;92.59
43820;BME280;67762;52.476;6.046;2023-08-20T05:56:18;102154.28;;;18.40;92.10
43820;BME280;67762;52.476;6.046;2023-08-20T05:58:44;102159.28;;;18.51;91.34
43820;BME280;67762;52.476;6.046;2023-08-20T06:01:09;102153.41;;;18.62;90.98
43820;BME280;67762;52.476;6.046;2023-08-20T06:03:35;102157.53;;;18.73;89.78
43820;BME280;67762;52.476;6.046;2023-08-20T06:06:01;102149.13;;;18.83;89.56
43820;BME280;67762;52.476;6.046;2023-08-20T06:08:28;102152.19;;;18.94;88.29
43820;BME280;67762;52.476;6.046;2023-08-20T06:10:53;102151.94;;;19.04;87.84
43820;BME280;67762;52.476;6.046;2023-08-20T06:13:19;102162.44;;;19.13;86.83
43820;BME280;67762;52.476;6.046;2023-08-20T06:15:44;102156.94;;;19.21;86.39
43820;BME280;67762;52.476;6.046;2023-08-20T06:18:10;102151.25;;;19.31;86.39
43820;BME280;67762;52.476;6.046;2023-08-20T06:20:36;102157.41;;;19.40;86.04
43820;BME280;67762;52.476;6.046;2023-08-20T06:23:02;102154.59;;;19.48;84.75
43820;BME280;67762;52.476;6.046;2023-08-20T06:25:27;102152.63;;;19.56;84.73
43820;BME280;67762;52.476;6.046;2023-08-20T06:27:53;102149.59;;;19.66;84.32
43820;BME280;67762;52.476;6.046;2023-08-20T06:30:19;102152.63;;;19.77;84.59
43820;BME280;67762;52.476;6.046;2023-08-20T06:32:44;102155.28;;;19.92;84.39
43820;BME280;67762;52.476;6.046;2023-08-20T06:35:10;102157.50;;;20.03;83.17
43820;BME280;67762;52.476;6.046;2023-08-20T06:37:38;102165.31;;;20.13;82.56
43820;BME280;67762;52.476;6.046;2023-08-20T06:40:05;102159.34;;;20.24;82.57
43820;BME280;67762;52.476;6.046;2023-08-20T06:42:31;102157.78;;;20.29;81.74
43820;BME280;67762;52.476;6.046;2023-08-20T06:44:56;102157.63;;;20.37;81.90
43820;BME280;67762;52.476;6.046;2023-08-20T06:47:22;102154.94;;;20.44;81.03
43820;BME280;67762;52.476;6.046;2023-08-20T06:49:49;102162.13;;;20.52;80.28
43820;BME280;67762;52.476;6.046;2023-08-20T06:52:15;102160.06;;;20.60;79.60
43820;BME280;67762;52.476;6.046;2023-08-20T06:54:41;102162.66;;;20.68;79.85
43820;BME280;67762;52.476;6.046;2023-08-20T06:57:06;102149.97;;;20.75;79.27
43820;BME280;67762;52.476;6.046;2023-08-20T06:59:32;102161.50;;;20.84;79.50
43820;BME280;67762;52.476;6.046;2023-08-20T07:01:58;102161.34;;;20.92;78.22
43820;BME280;67762;52.476;6.046;2023-08-20T07:04:23;102164.28;;;20.97;77.70
43820;BME280;67762;52.476;6.046;2023-08-20T07:06:50;102166.81;;;20.98;77.04
43820;BME280;67762;52.476;6.046;2023-08-20T07:09:16;102165.81;;;21.06;77.43
43820;BME280;67762;52.476;6.046;2023-08-20T07:11:42;102165.06;;;21.19;77.86
43820;BME280;67762;52.476;6.046;2023-08-20T07:14:07;102167.00;;;21.31;76.83
43820;BME280;67762;52.476;6.046;2023-08-20T07:16:33;102160.13;;;21.35;76.37
43820;BME280;67762;52.476;6.046;2023-08-20T07:18:59;102170.59;;;21.45;77.22
43820;BME280;67762;52.476;6.046;2023-08-20T07:21:24;102163.97;;;21.54;76.59
43820;BME280;67762;52.476;6.046;2023-08-20T07:23:50;102177.34;;;21.55;75.44
43820;BME280;67762;52.476;6.046;2023-08-20T07:26:15;102167.31;;;21.56;75.26
43820;BME280;67762;52.476;6.046;2023-08-20T07:28:41;102168.81;;;21.65;75.26
43820;BME280;67762;52.476;6.046;2023-08-20T07:31:33;102167.16;;;21.71;74.17
43820;BME280;67762;52.476;6.046;2023-08-20T07:34:00;102173.44;;;21.71;74.03
43820;BME280;67762;52.476;6.046;2023-08-20T07:36:26;102178.44;;;21.74;73.69
43820;BME280;67762;52.476;6.046;2023-08-20T07:38:53;102171.34;;;21.73;73.28
43820;BME280;67762;52.476;6.046;2023-08-20T07:41:20;102177.81;;;21.72;73.70
43820;BME280;67762;52.476;6.046;2023-08-20T07:43:46;102172.59;;;21.77;73.81
43820;BME280;67762;52.476;6.046;2023-08-20T07:46:12;102178.09;;;21.90;73.51
43820;BME280;67762;52.476;6.046;2023-08-20T07:48:39;102170.19;;;22.08;73.39
43820;BME280;67762;52.476;6.046;2023-08-20T07:51:05;102172.91;;;22.28;72.82
43820;BME280;67762;52.476;6.046;2023-08-20T07:53:31;102179.00;;;22.43;72.04
43820;BME280;67762;52.476;6.046;2023-08-20T07:55:57;102178.38;;;22.54;70.62
43820;BME280;67762;52.476;6.046;2023-08-20T07:58:23;102175.22;;;22.70;70.48
43820;BME280;67762;52.476;6.046;2023-08-20T08:00:49;102181.88;;;22.94;69.89
43820;BME280;67762;52.476;6.046;2023-08-20T08:03:15;102186.00;;;23.16;68.59
43820;BME280;67762;52.476;6.046;2023-08-20T08:05:41;102179.44;;;23.44;67.46
43820;BME280;67762;52.476;6.046;2023-08-20T08:08:07;102182.50;;;23.60;66.19
43820;BME280;67762;52.476;6.046;2023-08-20T08:10:32;102183.34;;;23.99;65.42
43820;BME280;67762;52.476;6.046;2023-08-20T08:12:58;102184.63;;;24.27;64.71
43820;BME280;67762;52.476;6.046;2023-08-20T08:15:23;102189.28;;;24.52;64.05
43820;BME280;67762;52.476;6.046;2023-08-20T08:17:49;102175.94;;;24.86;62.88
43820;BME280;67762;52.476;6.046;2023-08-20T08:20:15;102190.50;;;25.17;61.97
43820;BME280;67762;52.476;6.046;2023-08-20T08:22:40;102189.47;;;25.18;61.42
43820;BME280;67762;52.476;6.046;2023-08-20T08:25:06;102192.63;;;25.33;60.12
43820;BME280;67762;52.476;6.046;2023-08-20T08:27:32;102188.00;;;25.33;58.45
43820;BME280;67762;52.476;6.046;2023-08-20T08:29:57;102195.75;;;25.18;57.44
43820;BME280;67762;52.476;6.046;2023-08-20T08:32:23;102192.31;;;25.05;57.62
43820;BME280;67762;52.476;6.046;2023-08-20T08:34:49;102194.38;;;25.27;58.50
43820;BME280;67762;52.476;6.046;2023-08-20T08:37:15;102199.84;;;25.45;57.54
43820;BME280;67762;52.476;6.046;2023-08-20T08:39:41;102196.72;;;25.42;55.89
43820;BME280;67762;52.476;6.046;2023-08-20T08:42:07;102200.84;;;25.51;55.94
43820;BME280;67762;52.476;6.046;2023-08-20T08:44:36;102197.41;;;25.55;55.89
43820;BME280;67762;52.476;6.046;2023-08-20T08:47:03;102206.84;;;25.60;55.22
43820;BME280;67762;52.476;6.046;2023-08-20T08:49:33;102203.78;;;26.16;55.48
43820;BME280;67762;52.476;6.046;2023-08-20T08:52:11;102203.91;;;26.44;55.20
43820;BME280;67762;52.476;6.046;2023-08-20T08:54:37;102201.91;;;26.39;55.56
43820;BME280;67762;52.476;6.046;2023-08-20T08:57:02;102202.28;;;26.54;55.52
43820;BME280;67762;52.476;6.046;2023-08-20T08:59:28;102200.03;;;26.98;55.08
43820;BME280;67762;52.476;6.046;2023-08-20T09:01:54;102207.31;;;27.15;54.47
43820;BME280;67762;52.476;6.046;2023-08-20T09:04:22;102208.81;;;27.23;54.65
43820;BME280;67762;52.476;6.046;2023-08-20T09:06:52;102207.38;;;27.32;54.12
43820;BME280;67762;52.476;6.046;2023-08-20T09:09:20;102210.34;;;27.54;53.92
43820;BME280;67762;52.476;6.046;2023-08-20T09:11:46;102199.75;;;27.74;53.50
43820;BME280;67762;52.476;6.046;2023-08-20T09:14:23;102197.03;;;28.19;53.01
43820;BME280;67762;52.476;6.046;2023-08-20T09:16:59;102205.59;;;28.06;52.09
43820;BME280;67762;52.476;6.046;2023-08-20T09:19:28;102201.03;;;28.11;52.32
43820;BME280;67762;52.476;6.046;2023-08-20T09:21:55;102207.34;;;27.83;51.60
43820;BME280;67762;52.476;6.046;2023-08-20T09:24:38;102203.16;;;27.53;52.36
43820;BME280;67762;52.476;6.046;2023-08-20T09:27:04;102200.03;;;27.61;52.50
43820;BME280;67762;52.476;6.046;2023-08-20T09:29:51;102199.38;;;27.82;52.27
43820;BME280;67762;52.476;6.046;2023-08-20T09:32:25;102201.47;;;28.20;51.39
43820;BME280;67762;52.476;6.046;2023-08-20T09:34:53;102209.63;;;28.31;51.10
43820;BME280;67762;52.476;6.046;2023-08-20T09:37:21;102209.13;;;28.34;51.36
43820;BME280;67762;52.476;6.046;2023-08-20T09:39:47;102207.13;;;28.30;51.28
43820;BME280;67762;52.476;6.046;2023-08-20T09:42:13;102206.25;;;28.13;50.82
43820;BME280;67762;52.476;6.046;2023-08-20T09:44:41;102208.38;;;28.22;51.48
43820;BME280;67762;52.476;6.046;2023-08-20T09:47:08;102208.50;;;28.16;50.47
43820;BME280;67762;52.476;6.046;2023-08-20T09:49:39;102211.94;;;28.06;50.52
43820;BME280;67762;52.476;6.046;2023-08-20T09:52:06;102211.19;;;28.27;49.99
43820;BME280;67762;52.476;6.046;2023-08-20T09:57:37;102205.97;;;28.59;49.13
43820;BME280;67762;52.476;6.046;2023-08-20T10:00:06;102217.88;;;28.31;48.53
43820;BME280;67762;52.476;6.046;2023-08-20T10:02:42;102207.88;;;28.25;49.22
43820;BME280;67762;52.476;6.046;2023-08-20T10:05:09;102209.28;;;28.44;48.13
43820;BME280;67762;52.476;6.046;2023-08-20T10:07:36;102214.38;;;28.69;47.46
43820;BME280;67762;52.476;6.046;2023-08-20T10:10:04;102216.22;;;28.64;47.08
43820;BME280;67762;52.476;6.046;2023-08-20T10:12:31;102221.63;;;28.59;46.59
43820;BME280;67762;52.476;6.046;2023-08-20T10:14:58;102220.28;;;28.44;46.13
43820;BME280;67762;52.476;6.046;2023-08-20T10:17:24;102224.09;;;28.43;46.13
43820;BME280;67762;52.476;6.046;2023-08-20T10:19:51;102228.50;;;28.44;46.85
43820;BME280;67762;52.476;6.046;2023-08-20T10:22:17;102219.97;;;28.74;45.84
43820;BME280;67762;52.476;6.046;2023-08-20T10:24:48;102224.38;;;28.75;45.36
43820;BME280;67762;52.476;6.046;2023-08-20T10:27:25;102226.94;;;28.98;44.42
43820;BME280;67762;52.476;6.046;2023-08-20T10:29:54;102215.81;;;28.72;43.47
43820;BME280;67762;52.476;6.046;2023-08-20T10:32:43;102222.19;;;28.44;42.94
43820;BME280;67762;52.476;6.046;2023-08-20T10:35:06;102222.78;;;28.46;43.49
43820;BME280;67762;52.476;6.046;2023-08-20T10:37:34;102228.44;;;28.39;44.63
43820;BME280;67762;52.476;6.046;2023-08-20T10:39:59;102220.22;;;28.73;44.54
43820;BME280;67762;52.476;6.046;2023-08-20T10:42:26;102225.31;;;29.41;43.91
43820;BME280;67762;52.476;6.046;2023-08-20T10:45:10;102223.22;;;29.26;43.61
43820;BME280;67762;52.476;6.046;2023-08-20T10:50:15;102219.56;;;29.64;43.07
43820;BME280;67762;52.476;6.046;2023-08-20T10:52:50;102215.41;;;30.10;43.06
43820;BME280;67762;52.476;6.046;2023-08-20T10:55:23;102220.50;;;29.96;42.81
43820;BME280;67762;52.476;6.046;2023-08-20T10:57:58;102219.06;;;29.89;42.61
43820;BME280;67762;52.476;6.046;2023-08-20T11:00:27;102219.72;;;30.28;43.06
43820;BME280;67762;52.476;6.046;2023-08-20T11:02:53;102218.50;;;30.19;41.76
43820;BME280;67762;52.476;6.046;2023-08-20T11:05:20;102218.28;;;29.72;41.73
43820;BME280;67762;52.476;6.046;2023-08-20T11:07:49;102223.81;;;29.28;43.10
43820;BME280;67762;52.476;6.046;2023-08-20T11:10:16;102213.22;;;29.20;43.90
43820;BME280;67762;52.476;6.046;2023-08-20T11:12:43;102219.47;;;29.54;43.31
43820;BME280;67762;52.476;6.046;2023-08-20T11:15:10;102214.00;;;30.07;42.65
43820;BME280;67762;52.476;6.046;2023-08-20T11:17:47;102218.94;;;30.64;42.17
43820;BME280;67762;52.476;6.046;2023-08-20T11:20:16;102222.31;;;30.39;42.06
43820;BME280;67762;52.476;6.046;2023-08-20T11:22:42;102219.06;;;29.89;42.52
43820;BME280;67762;52.476;6.046;2023-08-20T11:25:12;102216.16;;;30.32;42.88
43820;BME280;67762;52.476;6.046;2023-08-20T11:27:44;102209.94;;;30.42;41.87
43820;BME280;67762;52.476;6.046;2023-08-20T11:30:11;102212.13;;;30.13;41.85
43820;BME280;67762;52.476;6.046;2023-08-20T11:32:40;102208.13;;;29.99;43.00
43820;BME280;67762;52.476;6.046;2023-08-20T11:35:07;102201.75;;;30.52;42.35
43820;BME280;67762;52.476;6.046;2023-08-20T11:37:33;102207.94;;;30.69;41.45
43820;BME280;67762;52.476;6.046;2023-08-20T11:39:59;102211.53;;;30.69;40.74
43820;BME280;67762;52.476;6.046;2023-08-20T11:42:25;102206.75;;;30.55;41.67
43820;BME280;67762;52.476;6.046;2023-08-20T11:44:55;102200.19;;;30.29;42.64
43820;BME280;67762;52.476;6.046;2023-08-20T11:47:21;102203.31;;;30.80;41.06
43820;BME280;67762;52.476;6.046;2023-08-20T11:49:46;102206.53;;;30.98;40.66
43820;BME280;67762;52.476;6.046;2023-08-20T11:52:12;102195.69;;;30.92;40.42
43820;BME280;67762;52.476;6.046;2023-08-20T11:54:42;102202.19;;;31.12;40.25
43820;BME280;67762;52.476;6.046;2023-08-20T11:57:08;102192.91;;;31.34;39.70
43820;BME280;67762;52.476;6.046;2023-08-20T11:59:34;102201.41;;;31.22;39.79
43820;BME280;67762;52.476;6.046;2023-08-20T12:02:01;102191.44;;;31.16;39.77
43820;BME280;67762;52.476;6.046;2023-08-20T12:04:29;102184.84;;;31.22;38.98
43820;BME280;67762;52.476;6.046;2023-08-20T12:07:04;102175.63;;;30.96;38.56
43820;BME280;67762;52.476;6.046;2023-08-20T12:09:33;102190.72;;;30.89;37.97
43820;BME280;67762;52.476;6.046;2023-08-20T12:11:59;102189.00;;;30.78;37.99
43820;BME280;67762;52.476;6.046;2023-08-20T12:14:25;102186.69;;;30.59;38.32
43820;BME280;67762;52.476;6.046;2023-08-20T12:16:51;102175.91;;;31.00;37.87
43820;BME280;67762;52.476;6.046;2023-08-20T12:19:16;102195.22;;;31.00;37.76
43820;BME280;67762;52.476;6.046;2023-08-20T12:21:43;102189.03;;;30.88;38.12
43820;BME280;67762;52.476;6.046;2023-08-20T12:24:09;102189.16;;;30.61;38.39
43820;BME280;67762;52.476;6.046;2023-08-20T12:26:39;102188.28;;;30.55;39.18
43820;BME280;67762;52.476;6.046;2023-08-20T12:29:05;102187.31;;;30.77;39.10
43820;BME280;67762;52.476;6.046;2023-08-20T12:31:32;102185.94;;;30.74;38.99
43820;BME280;67762;52.476;6.046;2023-08-20T12:33:58;102185.16;;;29.62;39.21
43820;BME280;67762;52.476;6.046;2023-08-20T12:36:24;102189.84;;;28.79;41.03
43820;BME280;67762;52.476;6.046;2023-08-20T12:38:50;102180.19;;;29.85;40.75
43820;BME280;67762;52.476;6.046;2023-08-20T12:41:15;102191.00;;;30.50;40.13
43820;BME280;67762;52.476;6.046;2023-08-20T12:43:41;102186.13;;;30.99;39.30
43820;BME280;67762;52.476;6.046;2023-08-20T12:46:07;102180.47;;;31.26;39.15
43820;BME280;67762;52.476;6.046;2023-08-20T12:48:33;102179.72;;;31.46;38.49
43820;BME280;67762;52.476;6.046;2023-08-20T12:50:58;102185.84;;;31.63;38.01
43820;BME280;67762;52.476;6.046;2023-08-20T12:53:24;102179.97;;;31.39;37.82
43820;BME280;67762;52.476;6.046;2023-08-20T12:55:50;102186.41;;;31.60;37.67
43820;BME280;67762;52.476;6.046;2023-08-20T12:58:15;102191.97;;;31.80;37.27
43820;BME280;67762;52.476;6.046;2023-08-20T13:00:41;102183.13;;;31.06;38.53
43820;BME280;67762;52.476;6.046;2023-08-20T13:03:07;102189.53;;;30.11;39.61
43820;BME280;67762;52.476;6.046;2023-08-20T13:05:33;102201.41;;;29.85;41.16